Time;durP1;ratioP1;P1;durP2;ratioP2;P2;SDS_P1;SDS_P2;PMS_P1;PMS_P2;Temp;Humidity;BMP_temperature;BMP_pressure;BME280_temperature;BME280_humidity;BME280_pressure;Samples;Min_cycle;Max_cycle;Signal;HPM_P1;HPM_P2
2022/06/12 00:00:49;;;;;;;4.60;3.00;;;;;;;;;;5044485;28;20860;-83
2022/06/12 00:03:18;;;;;;;4.10;2.80;;;;;;;;;;5050190;28;20952;-84
2022/06/12 00:05:47;;;;;;;7.77;4.27;;;;;;;;;;5041443;28;20454;-82
2022/06/12 00:08:14;;;;;;;5.10;3.80;;;;;;;;;;5051951;28;20940;-83
2022/06/12 00:10:43;;;;;;;4.17;3.43;;;;;;;;;;5047870;28;20860;-83
2022/06/12 00:13:11;;;;;;;3.80;3.30;;;;;;;;;;5050775;28;20485;-83
2022/06/12 00:15:38;;;;;;;5.40;2.90;;;;;;;;;;5034219;28;20511;-83
2022/06/12 00:18:05;;;;;;;6.10;3.53;;;;;;;;;;5043495;28;20997;-82
2022/06/12 00:20:34;;;;;;;4.00;2.80;;;;;;;;;;5038838;28;20456;-84
2022/06/12 00:23:01;;;;;;;2.80;2.47;;;;;;;;;;5049655;28;20464;-84
2022/06/12 00:25:30;;;;;;;4.60;2.50;;;;;;;;;;5051108;28;20503;-84
2022/06/12 00:27:57;;;;;;;4.13;3.00;;;;;;;;;;5044244;28;20936;-85
2022/06/12 00:30:25;;;;;;;3.53;2.30;;;;;;;;;;5044888;28;20465;-85
2022/06/12 00:32:54;;;;;;;5.07;3.10;;;;;;;;;;5036147;28;20503;-85
2022/06/12 00:35:23;;;;;;;3.87;2.90;;;;;;;;;;5050560;28;20502;-84
2022/06/12 00:37:52;;;;;;;2.63;2.43;;;;;;;;;;5048166;28;20477;-84
2022/06/12 00:40:19;;;;;;;8.10;3.50;;;;;;;;;;5048652;28;20944;-82
2022/06/12 00:42:48;;;;;;;3.23;2.20;;;;;;;;;;5042319;28;21015;-82
2022/06/12 00:45:30;;;;;;;4.03;2.50;;;;;;;;;;5044593;28;20515;-81
2022/06/12 00:47:57;;;;;;;5.83;3.30;;;;;;;;;;5040769;28;20465;-81
2022/06/12 00:50:24;;;;;;;5.10;2.60;;;;;;;;;;5052828;28;20514;-81
2022/06/12 00:52:56;;;;;;;4.90;2.70;;;;;;;;;;5051661;28;20929;-81
2022/06/12 00:55:26;;;;;;;6.87;3.13;;;;;;;;;;5044499;28;20491;-81
2022/06/12 00:57:54;;;;;;;3.30;2.70;;;;;;;;;;5046298;28;20447;-81
2022/06/12 01:00:22;;;;;;;4.33;2.70;;;;;;;;;;5042561;28;20466;-81
2022/06/12 01:02:49;;;;;;;4.60;3.10;;;;;;;;;;5045590;28;20469;-81
2022/06/12 01:08:05;;;;;;;3.27;2.70;;;;;;;;;;5043363;28;20432;-81
2022/06/12 01:10:33;;;;;;;3.70;2.80;;;;;;;;;;5042388;28;20460;-82
2022/06/12 01:13:01;;;;;;;5.77;3.20;;;;;;;;;;5051479;28;20437;-83
2022/06/12 01:15:31;;;;;;;5.60;2.77;;;;;;;;;;5034881;28;20488;-84
2022/06/12 01:18:00;;;;;;;3.00;2.40;;;;;;;;;;5041210;28;20463;-85
2022/06/12 01:20:29;;;;;;;2.70;2.13;;;;;;;;;;5049490;28;20928;-86
2022/06/12 01:23:08;;;;;;;6.67;4.10;;;;;;;;;;5041581;28;20463;-83
2022/06/12 01:25:45;;;;;;;5.03;2.67;;;;;;;;;;5044737;28;20956;-84
2022/06/12 01:28:37;;;;;;;2.63;2.27;;;;;;;;;;5044055;28;20447;-83
2022/06/12 01:31:07;;;;;;;3.40;2.10;;;;;;;;;;5036860;28;20476;-83
2022/06/12 01:33:38;;;;;;;2.13;1.80;;;;;;;;;;5048532;28;20472;-83
2022/06/12 01:36:10;;;;;;;2.37;2.00;;;;;;;;;;5004159;28;1120339;-83
2022/06/12 01:38:42;;;;;;;4.00;2.60;;;;;;;;;;5050000;28;20665;-83
2022/06/12 01:41:14;;;;;;;4.63;2.40;;;;;;;;;;5040979;28;20472;-84
2022/06/12 01:43:45;;;;;;;3.77;1.87;;;;;;;;;;5044426;28;20460;-84
2022/06/12 01:46:17;;;;;;;2.97;2.30;;;;;;;;;;5038189;28;20465;-86
2022/06/12 01:48:47;;;;;;;3.43;2.47;;;;;;;;;;5051288;28;20994;-86
2022/06/12 01:51:19;;;;;;;3.30;2.23;;;;;;;;;;5046759;28;20514;-86
2022/06/12 01:53:52;;;;;;;2.67;2.08;;;;;;;;;;5052623;28;20469;-86
2022/06/12 01:56:22;;;;;;;3.97;2.20;;;;;;;;;;5044002;28;20255;-84
2022/06/12 01:58:55;;;;;;;2.50;1.70;;;;;;;;;;5046013;28;20472;-84
2022/06/12 02:01:25;;;;;;;5.25;2.22;;;;;;;;;;5035946;28;20529;-84
2022/06/12 02:03:54;;;;;;;4.20;2.50;;;;;;;;;;5047041;28;20658;-86
2022/06/12 02:06:24;;;;;;;3.50;2.40;;;;;;;;;;5045943;28;20460;-85
2022/06/12 02:08:53;;;;;;;2.07;1.87;;;;;;;;;;5061063;28;20842;-82
2022/06/12 02:14:12;;;;;;;5.03;2.20;;;;;;;;;;5052396;28;20221;-82
2022/06/12 02:16:41;;;;;;;1.73;1.60;;;;;;;;;;5035528;28;20822;-82
2022/06/12 02:19:10;;;;;;;2.33;1.90;;;;;;;;;;5054337;28;20468;-83
2022/06/12 02:21:41;;;;;;;2.25;1.88;;;;;;;;;;5048859;28;20955;-83
2022/06/12 02:24:10;;;;;;;2.15;1.95;;;;;;;;;;5045462;28;20722;-83
2022/06/12 02:26:42;;;;;;;2.60;2.00;;;;;;;;;;5038101;28;20483;-82
2022/06/12 02:29:13;;;;;;;4.27;2.10;;;;;;;;;;5043270;28;20547;-83
2022/06/12 02:31:42;;;;;;;4.80;2.07;;;;;;;;;;5041871;28;20464;-83
2022/06/12 02:34:12;;;;;;;3.30;2.13;;;;;;;;;;5043799;28;20476;-83
2022/06/12 02:36:41;;;;;;;2.70;2.43;;;;;;;;;;5043369;28;20468;-83
2022/06/12 02:39:11;;;;;;;3.57;2.00;;;;;;;;;;5052175;28;20786;-83
2022/06/12 02:41:40;;;;;;;4.55;2.38;;;;;;;;;;5043984;28;20542;-83
2022/06/12 02:44:10;;;;;;;3.13;2.15;;;;;;;;;;5039205;28;20938;-83
2022/06/12 02:46:39;;;;;;;4.40;1.90;;;;;;;;;;5036293;28;20207;-83
2022/06/12 02:49:09;;;;;;;5.57;2.30;;;;;;;;;;5051745;28;20438;-83
2022/06/12 02:51:38;;;;;;;2.00;1.80;;;;;;;;;;5045215;28;20475;-83
2022/06/12 02:54:11;;;;;;;4.73;2.10;;;;;;;;;;5043907;28;20218;-83
2022/06/12 02:56:43;;;;;;;2.50;1.70;;;;;;;;;;5048042;28;20469;-82
2022/06/12 02:59:15;;;;;;;3.27;1.93;;;;;;;;;;5038396;28;20873;-82
2022/06/12 03:01:47;;;;;;;2.80;2.20;;;;;;;;;;5029669;28;21031;-83
2022/06/12 03:04:21;;;;;;;2.85;1.95;;;;;;;;;;5051495;28;20206;-83
2022/06/12 03:06:48;;;;;;;3.08;1.90;;;;;;;;;;5038758;28;20194;-83
2022/06/12 03:09:15;;;;;;;2.33;2.13;;;;;;;;;;5051501;28;20204;-83
2022/06/12 03:11:44;;;;;;;2.50;1.65;;;;;;;;;;5039921;28;20679;-84
2022/06/12 03:14:13;;;;;;;3.33;2.17;;;;;;;;;;5047724;28;20219;-87
2022/06/12 03:16:41;;;;;;;2.47;1.70;;;;;;;;;;5036785;28;20222;-86
2022/06/12 03:19:12;;;;;;;3.65;1.88;;;;;;;;;;5050663;28;20450;-85
2022/06/12 03:21:41;;;;;;;5.28;2.38;;;;;;;;;;5042309;28;20197;-85
2022/06/12 03:24:20;;;;;;;3.25;1.92;;;;;;;;;;5044060;28;20291;-86
2022/06/12 03:26:52;;;;;;;2.83;2.00;;;;;;;;;;5048352;28;20663;-86
2022/06/12 03:29:23;;;;;;;2.50;1.80;;;;;;;;;;5047545;28;20204;-86
2022/06/12 03:31:53;;;;;;;3.53;2.50;;;;;;;;;;5034086;28;20200;-87
2022/06/12 03:34:25;;;;;;;4.55;2.10;;;;;;;;;;5054292;28;20255;-86
2022/06/12 03:36:54;;;;;;;5.15;2.28;;;;;;;;;;5041537;28;20627;-86
2022/06/12 03:39:26;;;;;;;2.22;2.00;;;;;;;;;;5051325;28;20210;-85
2022/06/12 03:41:55;;;;;;;3.88;1.83;;;;;;;;;;5041534;28;20638;-86
2022/06/12 03:44:27;;;;;;;3.38;1.90;;;;;;;;;;5034971;28;20563;-85
2022/06/12 03:46:55;;;;;;;2.95;2.00;;;;;;;;;;5043885;28;20205;-84
2022/06/12 03:49:29;;;;;;;2.55;2.22;;;;;;;;;;5048361;28;20196;-85
2022/06/12 03:51:58;;;;;;;2.30;2.10;;;;;;;;;;5048412;28;20207;-86
2022/06/12 03:54:27;;;;;;;2.17;1.98;;;;;;;;;;5050494;28;20216;-87
2022/06/12 03:59:43;;;;;;;4.88;2.72;;;;;;;;;;5048279;28;20678;-86
2022/06/12 04:02:12;;;;;;;3.05;2.05;;;;;;;;;;5037112;28;20223;-84
2022/06/12 04:04:41;;;;;;;2.80;2.10;;;;;;;;;;5043416;28;20248;-84
2022/06/12 04:07:11;;;;;;;2.75;2.10;;;;;;;;;;5043140;28;20578;-84
2022/06/12 04:09:40;;;;;;;3.45;1.90;;;;;;;;;;5045279;28;20601;-84
2022/06/12 04:12:10;;;;;;;3.45;2.35;;;;;;;;;;5045818;28;20203;-84
2022/06/12 04:14:40;;;;;;;3.05;1.98;;;;;;;;;;5030386;28;20224;-83
2022/06/12 04:17:07;;;;;;;3.95;2.08;;;;;;;;;;5034880;28;20662;-83
2022/06/12 04:19:58;;;;;;;3.22;1.70;;;;;;;;;;5048975;28;20547;-83
2022/06/12 04:22:26;;;;;;;6.07;2.20;;;;;;;;;;5041383;28;21656;-82
2022/06/12 04:24:56;;;;;;;3.40;2.15;;;;;;;;;;5038728;28;20250;-83
2022/06/12 04:27:25;;;;;;;3.92;2.40;;;;;;;;;;5045897;28;20290;-83
2022/06/12 04:29:53;;;;;;;2.70;1.80;;;;;;;;;;5038544;28;20196;-87
2022/06/12 04:32:20;;;;;;;3.97;2.30;;;;;;;;;;5043798;28;20260;-87
2022/06/12 04:34:48;;;;;;;6.13;2.30;;;;;;;;;;5050893;28;20220;-82
2022/06/12 04:37:16;;;;;;;2.15;1.95;;;;;;;;;;5045776;28;20195;-84
2022/06/12 04:39:45;;;;;;;5.00;2.10;;;;;;;;;;5041865;28;20398;-84
2022/06/12 04:42:14;;;;;;;2.35;1.80;;;;;;;;;;5046536;28;20225;-83
2022/06/12 04:44:41;;;;;;;3.67;1.92;;;;;;;;;;5049127;28;20208;-84
2022/06/12 04:47:08;;;;;;;3.95;2.35;;;;;;;;;;5042352;28;20659;-85
2022/06/12 04:49:37;;;;;;;4.95;1.75;;;;;;;;;;5042652;28;20253;-86
2022/06/12 04:52:05;;;;;;;2.47;1.85;;;;;;;;;;5047383;28;20689;-86
2022/06/12 04:54:33;;;;;;;4.00;1.50;;;;;;;;;;5047771;28;20231;-87
2022/06/12 04:57:02;;;;;;;3.22;2.25;;;;;;;;;;5045116;28;20261;-87
2022/06/12 04:59:29;;;;;;;6.35;2.45;;;;;;;;;;5044216;28;20203;-86
2022/06/12 05:01:57;;;;;;;3.72;1.88;;;;;;;;;;5034275;28;20250;-86
2022/06/12 05:04:24;;;;;;;3.80;2.05;;;;;;;;;;5053922;28;20197;-86
2022/06/12 05:06:52;;;;;;;3.35;1.98;;;;;;;;;;5048245;28;20203;-85
2022/06/12 05:09:20;;;;;;;2.70;2.08;;;;;;;;;;5049266;28;20575;-85
2022/06/12 05:11:47;;;;;;;5.78;2.10;;;;;;;;;;5049060;28;20227;-85
2022/06/12 05:14:15;;;;;;;5.25;2.58;;;;;;;;;;5050750;28;20203;-88
2022/06/12 05:16:44;;;;;;;2.35;1.55;;;;;;;;;;5044919;28;20197;-87
2022/06/12 05:19:12;;;;;;;2.83;2.25;;;;;;;;;;5045354;28;20258;-88
2022/06/12 05:21:40;;;;;;;1.80;1.65;;;;;;;;;;5044775;28;20208;-88
2022/06/12 05:24:07;;;;;;;3.03;1.95;;;;;;;;;;5046320;28;20199;-85
2022/06/12 05:26:34;;;;;;;2.00;1.50;;;;;;;;;;5042665;28;20197;-86
2022/06/12 05:29:02;;;;;;;2.53;1.40;;;;;;;;;;5041687;28;20200;-85
2022/06/12 05:31:30;;;;;;;1.73;1.50;;;;;;;;;;5036376;28;20317;-85
2022/06/12 05:33:58;;;;;;;2.80;2.10;;;;;;;;;;5051961;28;20660;-86
2022/06/12 05:36:25;;;;;;;3.90;2.00;;;;;;;;;;5040962;28;20216;-85
2022/06/12 05:38:53;;;;;;;3.87;2.17;;;;;;;;;;5050843;28;20916;-85
2022/06/12 05:41:20;;;;;;;2.88;1.88;;;;;;;;;;5040575;28;21017;-86
2022/06/12 05:43:48;;;;;;;3.13;1.40;;;;;;;;;;5049106;28;20653;-85
2022/06/12 05:46:16;;;;;;;5.57;2.00;;;;;;;;;;5038820;28;20461;-84
2022/06/12 05:48:45;;;;;;;3.57;1.70;;;;;;;;;;5050539;28;20477;-87
2022/06/12 05:51:13;;;;;;;1.77;1.20;;;;;;;;;;5040738;28;20518;-86
2022/06/12 05:53:43;;;;;;;2.97;1.60;;;;;;;;;;5052807;28;20472;-85
2022/06/12 05:56:11;;;;;;;2.23;1.60;;;;;;;;;;5042900;28;20486;-85
2022/06/12 05:58:39;;;;;;;2.07;1.30;;;;;;;;;;5043501;28;20454;-85
2022/06/12 06:01:06;;;;;;;2.00;1.53;;;;;;;;;;5044473;28;20459;-86
2022/06/12 06:03:34;;;;;;;2.90;1.40;;;;;;;;;;5041519;28;20454;-85
2022/06/12 06:06:02;;;;;;;2.23;1.20;;;;;;;;;;5038388;28;20454;-86
2022/06/12 06:08:30;;;;;;;3.40;1.60;;;;;;;;;;5040312;28;20461;-85
2022/06/12 06:10:57;;;;;;;1.97;1.40;;;;;;;;;;5040604;28;20489;-85
2022/06/12 06:13:24;;;;;;;2.13;1.30;;;;;;;;;;5030276;28;20462;-85
2022/06/12 06:15:51;;;;;;;1.80;1.20;;;;;;;;;;5028307;28;20560;-83
2022/06/12 06:18:18;;;;;;;1.30;0.90;;;;;;;;;;5033013;28;20462;-86
2022/06/12 06:20:46;;;;;;;1.97;1.30;;;;;;;;;;5046397;28;20466;-86
2022/06/12 06:23:14;;;;;;;2.07;1.07;;;;;;;;;;5028325;28;20460;-86
2022/06/12 06:25:41;;;;;;;3.07;1.10;;;;;;;;;;5039743;28;20468;-88
2022/06/12 06:28:09;;;;;;;2.90;1.40;;;;;;;;;;5035082;28;20984;-84
2022/06/12 06:30:37;;;;;;;3.60;1.23;;;;;;;;;;5027162;28;20459;-90
2022/06/12 06:33:04;;;;;;;3.67;1.20;;;;;;;;;;5037161;28;20992;-86
2022/06/12 06:35:31;;;;;;;2.80;1.17;;;;;;;;;;5034530;28;20488;-89
2022/06/12 06:37:59;;;;;;;1.20;0.90;;;;;;;;;;5051954;28;20441;-87
2022/06/12 06:40:28;;;;;;;1.93;1.00;;;;;;;;;;5040877;28;20465;-87
2022/06/12 06:42:55;;;;;;;1.73;1.00;;;;;;;;;;5046045;28;20975;-87
2022/06/12 06:48:09;;;;;;;2.40;0.90;;;;;;;;;;5042226;28;20576;-84
2022/06/12 06:50:36;;;;;;;1.83;1.00;;;;;;;;;;5045717;28;20544;-85
2022/06/12 06:53:04;;;;;;;2.00;1.20;;;;;;;;;;5050908;28;20472;-85
2022/06/12 06:55:33;;;;;;;1.87;1.00;;;;;;;;;;5044619;28;20482;-85
2022/06/12 06:58:01;;;;;;;2.50;1.30;;;;;;;;;;5043974;28;20464;-86
2022/06/12 07:00:29;;;;;;;2.03;1.00;;;;;;;;;;5034018;28;20457;-86
2022/06/12 07:02:57;;;;;;;2.10;1.10;;;;;;;;;;5050980;28;20452;-85
2022/06/12 07:05:24;;;;;;;4.50;1.43;;;;;;;;;;5046051;28;20453;-85
2022/06/12 07:07:51;;;;;;;2.47;1.00;;;;;;;;;;5046090;28;20461;-85
2022/06/12 07:10:20;;;;;;;2.03;1.07;;;;;;;;;;5041761;28;20464;-85
2022/06/12 07:12:49;;;;;;;2.60;1.13;;;;;;;;;;5044009;28;20457;-84
2022/06/12 07:15:16;;;;;;;1.60;1.00;;;;;;;;;;5039882;28;20543;-84
2022/06/12 07:17:43;;;;;;;3.03;1.00;;;;;;;;;;5045319;28;20871;-83
2022/06/12 07:20:12;;;;;;;3.43;1.00;;;;;;;;;;5046914;28;20456;-82
2022/06/12 07:22:39;;;;;;;1.90;1.00;;;;;;;;;;5047981;28;20454;-81
2022/06/12 07:25:07;;;;;;;4.27;1.20;;;;;;;;;;5041613;28;20462;-82
2022/06/12 07:27:34;;;;;;;1.27;1.00;;;;;;;;;;5046828;28;20476;-81
2022/06/12 07:30:02;;;;;;;2.00;1.10;;;;;;;;;;5044145;28;20500;-82
2022/06/12 07:32:29;;;;;;;2.53;1.60;;;;;;;;;;5033185;28;20849;-81
2022/06/12 07:34:57;;;;;;;1.43;1.00;;;;;;;;;;5047510;28;20477;-82
2022/06/12 07:37:24;;;;;;;2.40;1.00;;;;;;;;;;5044715;28;20503;-82
2022/06/12 07:39:51;;;;;;;2.13;1.23;;;;;;;;;;5040629;28;20830;-82
2022/06/12 07:42:18;;;;;;;2.60;1.00;;;;;;;;;;5031261;28;20496;-81
2022/06/12 07:44:45;;;;;;;1.93;1.10;;;;;;;;;;5043653;28;20476;-83
2022/06/12 07:47:14;;;;;;;3.03;0.90;;;;;;;;;;5048674;28;20442;-83
2022/06/12 07:49:41;;;;;;;2.23;1.10;;;;;;;;;;5034616;28;20454;-82
2022/06/12 07:52:10;;;;;;;3.53;1.23;;;;;;;;;;5032065;28;20869;-83
2022/06/12 07:54:38;;;;;;;3.43;1.10;;;;;;;;;;5029097;28;20467;-84
2022/06/12 07:57:06;;;;;;;2.30;1.10;;;;;;;;;;5030939;28;20492;-84
2022/06/12 07:59:33;;;;;;;2.40;1.90;;;;;;;;;;5030386;28;20468;-83
2022/06/12 08:02:00;;;;;;;2.77;0.90;;;;;;;;;;5038691;28;20449;-84
2022/06/12 08:04:29;;;;;;;2.67;1.23;;;;;;;;;;5049158;28;20495;-84
2022/06/12 08:06:56;;;;;;;3.27;1.10;;;;;;;;;;5042349;28;20461;-85
2022/06/12 08:09:24;;;;;;;4.23;1.70;;;;;;;;;;5033141;28;20885;-83
2022/06/12 08:11:51;;;;;;;1.70;1.17;;;;;;;;;;5038554;28;20461;-84
2022/06/12 08:14:20;;;;;;;2.50;1.23;;;;;;;;;;5041555;28;20519;-84
2022/06/12 08:16:47;;;;;;;3.40;1.30;;;;;;;;;;5039646;28;20481;-86
2022/06/12 08:22:02;;;;;;;1.73;1.07;;;;;;;;;;5042657;28;20441;-86
2022/06/12 08:24:31;;;;;;;1.93;0.87;;;;;;;;;;5046951;28;20461;-84
2022/06/12 08:26:59;;;;;;;2.87;1.40;;;;;;;;;;5048301;28;20437;-84
2022/06/12 08:29:26;;;;;;;1.97;1.10;;;;;;;;;;5045939;28;20920;-83
2022/06/12 08:31:55;;;;;;;2.60;1.17;;;;;;;;;;5044705;28;20452;-85
2022/06/12 08:34:23;;;;;;;2.50;1.10;;;;;;;;;;5037539;28;21140;-84
2022/06/12 08:36:50;;;;;;;4.07;1.20;;;;;;;;;;5041345;28;20484;-83
2022/06/12 08:39:19;;;;;;;2.23;1.20;;;;;;;;;;5035924;28;20466;-83
2022/06/12 08:41:49;;;;;;;2.90;1.13;;;;;;;;;;5034008;28;20477;-84
2022/06/12 08:44:17;;;;;;;2.77;1.20;;;;;;;;;;5035943;28;20442;-83
2022/06/12 08:46:47;;;;;;;3.77;1.50;;;;;;;;;;5031607;28;20882;-83
2022/06/12 08:49:18;;;;;;;1.70;1.10;;;;;;;;;;5034045;28;20454;-82
2022/06/12 08:51:49;;;;;;;2.00;1.10;;;;;;;;;;5037346;28;20944;-83
2022/06/12 08:54:18;;;;;;;2.57;1.13;;;;;;;;;;5037412;28;20549;-84
2022/06/12 08:56:50;;;;;;;1.90;1.13;;;;;;;;;;5033541;28;20860;-83
2022/06/12 08:59:19;;;;;;;3.90;1.30;;;;;;;;;;5033795;28;20470;-83
2022/06/12 09:01:46;;;;;;;2.43;1.40;;;;;;;;;;5032110;28;20512;-82
2022/06/12 09:04:15;;;;;;;3.13;1.33;;;;;;;;;;5035002;28;20548;-83
2022/06/12 09:06:46;;;;;;;2.50;1.30;;;;;;;;;;5031481;28;21297;-83
2022/06/12 09:09:17;;;;;;;2.10;1.03;;;;;;;;;;5032951;28;20824;-83
2022/06/12 09:11:47;;;;;;;4.47;1.00;;;;;;;;;;5037532;28;20932;-83
2022/06/12 09:14:19;;;;;;;2.47;1.20;;;;;;;;;;5032355;28;20488;-83
2022/06/12 09:16:50;;;;;;;2.33;1.10;;;;;;;;;;5031461;28;20816;-84
2022/06/12 09:19:19;;;;;;;4.70;0.87;;;;;;;;;;5044375;28;20468;-84
2022/06/12 09:21:50;;;;;;;2.23;1.40;;;;;;;;;;5036817;28;20454;-83
2022/06/12 09:24:23;;;;;;;5.93;1.40;;;;;;;;;;5032613;28;20463;-83
2022/06/12 09:26:55;;;;;;;2.10;1.13;;;;;;;;;;5031795;28;20461;-84
2022/06/12 09:29:28;;;;;;;1.90;0.97;;;;;;;;;;5035175;28;20460;-84
2022/06/12 09:31:58;;;;;;;4.43;1.43;;;;;;;;;;5032276;28;20450;-84
2022/06/12 09:34:30;;;;;;;4.23;1.67;;;;;;;;;;5037945;28;20449;-83
2022/06/12 09:38:18;;;;;;;2.37;1.60;;;;;;;;;;5032101;28;20588;-84
2022/06/12 09:39:53;;;;;;;4.03;1.93;;;;;;;;;;5031951;28;20441;-84
2022/06/12 09:42:23;;;;;;;2.10;1.10;;;;;;;;;;5034733;28;20481;-85
2022/06/12 09:44:52;;;;;;;2.67;1.53;;;;;;;;;;5035583;28;20457;-81
2022/06/12 09:47:24;;;;;;;2.17;1.57;;;;;;;;;;5032692;28;20825;-85
2022/06/12 09:49:57;;;;;;;3.67;1.50;;;;;;;;;;5036905;28;20461;-83
2022/06/12 09:52:34;;;;;;;3.33;1.50;;;;;;;;;;5034333;28;20460;-82
2022/06/12 09:55:04;;;;;;;2.50;1.40;;;;;;;;;;5039519;28;20465;-83
2022/06/12 09:57:38;;;;;;;1.90;1.10;;;;;;;;;;5033636;28;20489;-83
2022/06/12 10:00:08;;;;;;;2.43;1.40;;;;;;;;;;5028430;28;20465;-84
2022/06/12 10:02:37;;;;;;;6.37;1.60;;;;;;;;;;5033374;28;20934;-85
2022/06/12 10:05:07;;;;;;;3.73;1.53;;;;;;;;;;5031424;28;20816;-83
2022/06/12 10:07:37;;;;;;;2.80;1.20;;;;;;;;;;5031748;28;21233;-84
2022/06/12 10:10:06;;;;;;;3.87;1.20;;;;;;;;;;5037815;28;20545;-84
2022/06/12 10:12:36;;;;;;;3.37;1.33;;;;;;;;;;5039543;28;20461;-85
2022/06/12 10:15:06;;;;;;;2.23;1.30;;;;;;;;;;5035251;28;22745;-86
2022/06/12 10:17:36;;;;;;;2.53;1.20;;;;;;;;;;5033314;28;20535;-85
2022/06/12 10:20:07;;;;;;;2.63;1.00;;;;;;;;;;5036028;28;20457;-81
2022/06/12 10:22:37;;;;;;;2.33;1.30;;;;;;;;;;5029976;28;20464;-82
2022/06/12 10:25:05;;;;;;;2.20;1.20;;;;;;;;;;5036398;28;20457;-82
2022/06/12 10:27:41;;;;;;;3.50;1.50;;;;;;;;;;5028449;28;20515;-84
2022/06/12 10:30:09;;;;;;;3.13;1.33;;;;;;;;;;5031906;28;20465;-81
2022/06/12 10:32:48;;;;;;;5.77;1.60;;;;;;;;;;5031506;28;20814;-85
2022/06/12 10:35:16;;;;;;;3.03;1.60;;;;;;;;;;5038461;28;20465;-84
2022/06/12 10:37:43;;;;;;;5.87;1.10;;;;;;;;;;5031903;28;20490;-84
2022/06/12 10:40:16;;;;;;;2.67;1.97;;;;;;;;;;5028168;28;20474;-83
2022/06/12 10:42:47;;;;;;;1.70;1.10;;;;;;;;;;5030613;28;20602;-86
2022/06/12 10:45:20;;;;;;;2.47;1.20;;;;;;;;;;5033051;28;20547;-85
2022/06/12 10:47:48;;;;;;;3.23;1.13;;;;;;;;;;5031705;28;20604;-83
2022/06/12 10:50:19;;;;;;;1.53;1.13;;;;;;;;;;5036831;28;20454;-82
2022/06/12 10:53:07;;;;;;;1.77;0.90;;;;;;;;;;5032158;28;20549;-85
2022/06/12 10:55:46;;;;;;;3.60;1.03;;;;;;;;;;5027858;28;20504;-86
2022/06/12 10:58:20;;;;;;;2.57;1.20;;;;;;;;;;5031340;28;20573;-84
2022/06/12 11:00:48;;;;;;;1.93;1.13;;;;;;;;;;5032523;28;20465;-85
2022/06/12 11:03:19;;;;;;;2.23;1.27;;;;;;;;;;5028944;28;20462;-86
2022/06/12 11:05:55;;;;;;;1.97;0.90;;;;;;;;;;5034255;28;20454;-82
2022/06/12 11:08:33;;;;;;;2.00;1.67;;;;;;;;;;5032674;28;20450;-84
2022/06/12 11:11:04;;;;;;;1.57;1.00;;;;;;;;;;5041124;28;20453;-85
2022/06/12 11:13:44;;;;;;;2.73;1.00;;;;;;;;;;5031851;28;20480;-83
2022/06/12 11:16:16;;;;;;;2.20;1.10;;;;;;;;;;5033945;28;20458;-87
2022/06/12 11:18:49;;;;;;;2.93;1.20;;;;;;;;;;5027979;28;20504;-85
2022/06/12 11:21:23;;;;;;;2.43;1.30;;;;;;;;;;5023908;28;20554;-83
2022/06/12 11:23:56;;;;;;;1.83;1.07;;;;;;;;;;5030962;28;20461;-84
2022/06/12 11:26:27;;;;;;;2.00;1.20;;;;;;;;;;5035564;28;20472;-83
2022/06/12 11:29:03;;;;;;;1.70;1.10;;;;;;;;;;5028286;28;20458;-84
2022/06/12 11:31:37;;;;;;;2.17;1.07;;;;;;;;;;5036891;28;20960;-87
2022/06/12 11:34:17;;;;;;;1.30;1.00;;;;;;;;;;5042586;28;20495;-85
2022/06/12 11:36:53;;;;;;;2.67;1.00;;;;;;;;;;5040939;28;20485;-85
2022/06/12 11:39:27;;;;;;;2.20;1.30;;;;;;;;;;5052517;28;20452;-85
2022/06/12 11:42:00;;;;;;;3.30;1.47;;;;;;;;;;5055359;28;20548;-87
2022/06/12 11:44:37;;;;;;;3.10;1.20;;;;;;;;;;5045691;28;20946;-86
2022/06/12 11:47:06;;;;;;;1.63;1.10;;;;;;;;;;5041848;28;20463;-85
2022/06/12 11:49:40;;;;;;;2.33;1.03;;;;;;;;;;5043757;28;20493;-87
2022/06/12 11:52:20;;;;;;;2.43;1.20;;;;;;;;;;5047842;28;20461;-87
2022/06/12 11:55:03;;;;;;;2.80;1.00;;;;;;;;;;5049774;28;20842;-85
2022/06/12 11:57:37;;;;;;;2.60;1.20;;;;;;;;;;5053839;28;21038;-85
2022/06/12 12:00:08;;;;;;;10.30;2.00;;;;;;;;;;5042908;28;20963;-83
2022/06/12 12:02:56;;;;;;;5.00;2.30;;;;;;;;;;5051710;28;20457;-84
2022/06/12 12:05:45;;;;;;;1.43;1.03;;;;;;;;;;5034531;28;20485;-86
2022/06/12 12:08:20;;;;;;;1.87;1.40;;;;;;;;;;5034813;28;20544;-85
2022/06/12 12:10:49;;;;;;;2.80;1.70;;;;;;;;;;5051560;28;20461;-85
2022/06/12 12:13:17;;;;;;;3.13;1.27;;;;;;;;;;5053571;28;20859;-85
2022/06/12 12:15:48;;;;;;;1.13;1.00;;;;;;;;;;5046905;28;20890;-85
2022/06/12 12:18:18;;;;;;;2.43;1.23;;;;;;;;;;5052316;28;20538;-87
2022/06/12 12:20:46;;;;;;;2.90;1.30;;;;;;;;;;5044663;28;20465;-84
2022/06/12 12:23:16;;;;;;;1.70;1.00;;;;;;;;;;5039217;28;20534;-83
2022/06/12 12:25:47;;;;;;;2.00;1.00;;;;;;;;;;5052310;28;20452;-86
2022/06/12 12:28:18;;;;;;;1.77;0.90;;;;;;;;;;5049464;28;20504;-85
2022/06/12 12:30:46;;;;;;;2.17;1.40;;;;;;;;;;5043798;28;20465;-85
2022/06/12 12:33:15;;;;;;;3.20;1.13;;;;;;;;;;5052619;28;20527;-85
2022/06/12 12:41:13;;;;;;;2.57;1.00;;;;;;;;;;5049252;28;20822;-85
2022/06/12 12:43:50;;;;;;;2.90;1.30;;;;;;;;;;5053528;28;20442;-83
2022/06/12 12:46:18;;;;;;;2.47;1.17;;;;;;;;;;5043968;28;20483;-88
2022/06/12 12:48:46;;;;;;;3.20;1.30;;;;;;;;;;5050791;28;20942;-86
2022/06/12 12:51:24;;;;;;;2.80;1.50;;;;;;;;;;5036430;28;20462;-85
2022/06/12 12:53:52;;;;;;;2.40;1.47;;;;;;;;;;5047572;28;20921;-86
2022/06/12 12:56:28;;;;;;;1.27;0.90;;;;;;;;;;5041283;28;20549;-85
2022/06/12 12:58:56;;;;;;;3.07;1.00;;;;;;;;;;5045153;28;20820;-88
2022/06/12 13:01:27;;;;;;;4.50;1.57;;;;;;;;;;5048105;28;20462;-89
2022/06/12 13:03:56;;;;;;;3.27;1.40;;;;;;;;;;5035947;28;20506;-87
2022/06/12 13:06:29;;;;;;;2.53;1.07;;;;;;;;;;5047000;28;20462;-86
2022/06/12 13:09:04;;;;;;;2.40;1.30;;;;;;;;;;5049240;28;20462;-89
2022/06/12 13:11:37;;;;;;;2.30;1.10;;;;;;;;;;5050053;28;20544;-85
2022/06/12 13:14:10;;;;;;;3.00;1.23;;;;;;;;;;5043907;28;20472;-88
2022/06/12 13:16:46;;;;;;;1.77;1.00;;;;;;;;;;5054836;28;20998;-87
2022/06/12 13:19:18;;;;;;;3.03;1.10;;;;;;;;;;5043072;28;20822;-83
2022/06/12 13:21:52;;;;;;;1.90;1.17;;;;;;;;;;5044169;28;20991;-84
2022/06/12 13:24:26;;;;;;;2.47;1.27;;;;;;;;;;5040191;28;20851;-81
2022/06/12 13:26:53;;;;;;;2.10;1.33;;;;;;;;;;5049923;28;20464;-84
2022/06/12 13:29:22;;;;;;;2.90;1.30;;;;;;;;;;5042191;28;20461;-84
2022/06/12 13:31:58;;;;;;;2.83;1.20;;;;;;;;;;5047599;28;20461;-83
2022/06/12 13:34:25;;;;;;;4.27;1.67;;;;;;;;;;5045440;28;20467;-84
2022/06/12 13:36:52;;;;;;;2.60;1.20;;;;;;;;;;5050189;28;20465;-83
2022/06/12 13:39:21;;;;;;;3.23;1.57;;;;;;;;;;5047915;28;20465;-84
2022/06/12 13:41:51;;;;;;;2.97;1.30;;;;;;;;;;5051170;28;20492;-84
2022/06/12 13:44:23;;;;;;;1.60;1.00;;;;;;;;;;5043893;28;20473;-85
2022/06/12 13:46:51;;;;;;;3.47;1.23;;;;;;;;;;5048092;28;20953;-84
2022/06/12 13:49:25;;;;;;;2.30;1.17;;;;;;;;;;5054400;28;20948;-83
2022/06/12 13:51:55;;;;;;;3.07;1.80;;;;;;;;;;5039901;28;20500;-84
2022/06/12 13:54:23;;;;;;;1.87;1.20;;;;;;;;;;5057500;28;20464;-84
2022/06/12 13:56:51;;;;;;;2.57;1.70;;;;;;;;;;5045204;28;20815;-84
2022/06/12 13:59:19;;;;;;;3.83;1.70;;;;;;;;;;5051285;28;20468;-84
2022/06/12 14:01:47;;;;;;;3.67;1.93;;;;;;;;;;5046423;28;20473;-82
2022/06/12 14:04:20;;;;;;;2.93;1.67;;;;;;;;;;5049336;28;20466;-84
2022/06/12 14:06:48;;;;;;;3.70;1.37;;;;;;;;;;5049762;28;20460;-84
2022/06/12 14:09:17;;;;;;;2.40;1.20;;;;;;;;;;5042480;28;20811;-82
2022/06/12 14:11:45;;;;;;;2.03;1.50;;;;;;;;;;5047846;28;20492;-83
2022/06/12 14:14:35;;;;;;;2.97;1.00;;;;;;;;;;5045800;28;20461;-86
2022/06/12 14:17:02;;;;;;;1.67;1.30;;;;;;;;;;5043785;28;20454;-82
2022/06/12 14:19:32;;;;;;;4.27;1.43;;;;;;;;;;5046187;28;20464;-83
2022/06/12 14:22:02;;;;;;;3.03;1.20;;;;;;;;;;5053731;28;20854;-85
2022/06/12 14:24:33;;;;;;;3.10;1.40;;;;;;;;;;5056249;28;20472;-84
2022/06/12 14:27:00;;;;;;;2.00;1.17;;;;;;;;;;5050455;28;20458;-84
2022/06/12 14:29:33;;;;;;;3.13;1.77;;;;;;;;;;5042727;28;20466;-83
2022/06/12 14:32:08;;;;;;;2.13;1.40;;;;;;;;;;5046036;28;20515;-83
2022/06/12 14:34:35;;;;;;;2.17;1.17;;;;;;;;;;5050931;28;20483;-84
2022/06/12 14:37:03;;;;;;;4.07;1.50;;;;;;;;;;5048835;28;20461;-83
2022/06/12 14:39:32;;;;;;;4.93;1.40;;;;;;;;;;5042819;28;20454;-86
2022/06/12 14:42:01;;;;;;;2.23;1.30;;;;;;;;;;5039921;28;20508;-83
2022/06/12 14:44:29;;;;;;;2.10;1.13;;;;;;;;;;5045113;28;20861;-84
2022/06/12 14:46:56;;;;;;;3.40;1.30;;;;;;;;;;5046527;28;20457;-84
2022/06/12 14:49:25;;;;;;;2.20;1.10;;;;;;;;;;5053609;28;20468;-85
2022/06/12 14:51:53;;;;;;;3.33;1.90;;;;;;;;;;5046681;28;20446;-85
2022/06/12 14:54:22;;;;;;;3.97;1.10;;;;;;;;;;5048481;28;20492;-86
2022/06/12 14:56:51;;;;;;;2.40;1.40;;;;;;;;;;5039628;28;21210;-83
2022/06/12 14:59:20;;;;;;;4.63;1.43;;;;;;;;;;5039496;28;20477;-83
2022/06/12 15:01:48;;;;;;;1.97;1.20;;;;;;;;;;5050643;28;20459;-82
2022/06/12 15:04:15;;;;;;;2.10;1.23;;;;;;;;;;5043014;28;20465;-84
2022/06/12 15:06:42;;;;;;;1.60;1.20;;;;;;;;;;5040542;28;20462;-83
2022/06/12 15:09:10;;;;;;;2.00;1.27;;;;;;;;;;5044118;28;20944;-83
2022/06/12 15:11:39;;;;;;;2.07;1.30;;;;;;;;;;5048045;28;20464;-82
2022/06/12 15:14:07;;;;;;;3.17;1.63;;;;;;;;;;5043378;28;21003;-84
2022/06/12 15:16:35;;;;;;;3.93;1.30;;;;;;;;;;5041427;28;20460;-84
2022/06/12 15:19:02;;;;;;;2.63;1.27;;;;;;;;;;5054607;28;20479;-85